Terminal Aerodrome Forecast
Issued by NWS Jackson, MS

Home | Current Version | Previous Version | Text Only | Print | Product List | Glossary On
Versions: 1 2 3 4 5 6 7 8 9 10 11 12
000
FTUS44 KJAN 170500
TAFMEI
TAF
KMEI 170520Z 1706/1806 VRB03KT P6SM FEW120 BKN200
     FM170900 00000KT 5SM BR FEW010 BKN200
     FM171330 01005KT P6SM SCT040 SCT250
     FM180000 VRB03KT P6SM FEW250=

USA.gov is the U.S. government's official web portal to all federal, state and local government web resources and services.